Time;durP1;ratioP1;P1;durP2;ratioP2;P2;SDS_P1;SDS_P2;PMS_P1;PMS_P2;Temp;Humidity;BMP_temperature;BMP_pressure;BME280_temperature;BME280_humidity;BME280_pressure;Samples;Min_cycle;Max_cycle;Signal;HPM_P1;HPM_P2
2022/12/10 00:00:40;;;;;;;;;;;;;;;10.73;65.42;98342.63;4996950;28;20327;-77
2022/12/10 00:03:05;;;;;;;;;;;;;;;10.72;65.43;98344.41;4979209;28;19957;-76
2022/12/10 00:05:32;;;;;;;;;;;;;;;10.72;65.44;98349.63;4979635;28;19918;-77
2022/12/10 00:07:58;;;;;;;;;;;;;;;10.71;65.63;98344.53;4962593;28;19918;-76
2022/12/10 00:10:23;;;;;;;;;;;;;;;10.72;65.29;98348.78;4979134;28;19929;-76
2022/12/10 00:12:49;;;;;;;;;;;;;;;10.71;65.48;98349.75;4996173;28;19929;-76
2022/12/10 00:15:14;;;;;;;;;;;;;;;10.71;65.47;98352.38;4978595;28;19973;-77
2022/12/10 00:17:39;;;;;;;;;;;;;;;10.70;65.63;98361.97;4995888;28;20012;-77
2022/12/10 00:20:05;;;;;;;;;;;;;;;10.70;65.36;98351.50;4978972;28;19918;-77
2022/12/10 00:22:30;;;;;;;;;;;;;;;10.69;65.66;98347.28;4995898;28;19977;-77
2022/12/10 00:24:55;;;;;;;;;;;;;;;10.70;65.46;98351.50;4979555;28;19965;-77
2022/12/10 00:27:21;;;;;;;;;;;;;;;10.68;65.69;98346.41;4978505;28;19921;-76
2022/12/10 00:29:46;;;;;;;;;;;;;;;10.68;65.71;98351.66;4995673;28;20001;-75
2022/12/10 00:32:12;;;;;;;;;;;;;;;10.69;65.48;98344.66;4995656;28;19922;-77
2022/12/10 00:34:37;;;;;;;;;;;;;;;10.70;65.50;98355.91;4978042;28;19940;-79
2022/12/10 00:37:02;;;;;;;;;;;;;;;10.67;65.76;98351.78;4996018;28;19924;-76
2022/12/10 00:39:28;;;;;;;;;;;;;;;10.67;65.44;98344.78;4978140;28;19965;-77
2022/12/10 00:41:54;;;;;;;;;;;;;;;10.67;65.70;98341.31;4978499;28;20385;-84
2022/12/10 00:44:19;;;;;;;;;;;;;;;10.67;65.75;98339.56;4977626;28;19925;-80
2022/12/10 00:46:44;;;;;;;;;;;;;;;10.66;65.80;98342.31;4995683;28;19942;-81
2022/12/10 00:49:09;;;;;;;;;;;;;;;10.65;65.68;98346.66;4978699;28;19917;-80
2022/12/10 00:51:35;;;;;;;;;;;;;;;10.65;65.80;98346.66;4995307;28;20336;-80
2022/12/10 00:54:00;;;;;;;;;;;;;;;10.65;65.78;98343.25;4995463;28;19914;-80
2022/12/10 00:56:26;;;;;;;;;;;;;;;10.63;65.63;98342.56;4995504;28;19922;-79
2022/12/10 00:58:52;;;;;;;;;;;;;;;10.61;65.87;98327.03;4977618;28;19925;-75
2022/12/10 01:01:21;;;;;;;;;;;;;;;10.60;65.85;98324.53;4978131;28;19918;-80
2022/12/10 01:03:47;;;;;;;;;;;;;;;10.60;65.92;98324.53;4978187;28;19960;-81
2022/12/10 01:06:14;;;;;;;;;;;;;;;10.60;65.54;98324.53;4977705;28;20333;-80
2022/12/10 01:08:39;;;;;;;;;;;;;;;10.60;65.61;98325.34;4977953;28;19921;-80
2022/12/10 01:11:05;;;;;;;;;;;;;;;10.59;65.64;98323.69;4995044;28;20373;-80
2022/12/10 01:13:30;;;;;;;;;;;;;;;10.59;65.75;98323.69;4995163;28;19940;-80
2022/12/10 01:15:55;;;;;;;;;;;;;;;10.58;65.77;98318.59;4977784;28;19968;-80
2022/12/10 01:18:21;;;;;;;;;;;;;;;10.58;65.77;98311.63;4977350;28;19925;-79
2022/12/10 01:20:46;;;;;;;;;;;;;;;10.57;65.81;98315.16;4977678;28;19968;-77
2022/12/10 01:23:11;;;;;;;;;;;;;;;10.57;65.73;98311.75;4994885;28;19922;-78
2022/12/10 01:25:36;;;;;;;;;;;;;;;10.56;65.58;98313.50;4977869;28;20000;-79
2022/12/10 01:28:02;;;;;;;;;;;;;;;10.55;65.76;98314.47;4977189;28;19940;-79
2022/12/10 01:30:27;;;;;;;;;;;;;;;10.54;66.01;98312.81;4977259;28;20381;-79
2022/12/10 01:32:52;;;;;;;;;;;;;;;10.54;65.67;98314.59;4977611;28;20301;-79
2022/12/10 01:35:18;;;;;;;;;;;;;;;10.54;65.77;98318.03;4960526;28;19918;-79
2022/12/10 01:37:43;;;;;;;;;;;;;;;10.54;65.78;98304.16;4977344;28;19930;-78
2022/12/10 01:40:08;;;;;;;;;;;;;;;10.54;65.98;98302.38;4994576;28;19971;-79
2022/12/10 01:42:34;;;;;;;;;;;;;;;10.54;65.66;98314.59;4960766;28;19925;-79
2022/12/10 01:45:00;;;;;;;;;;;;;;;10.54;65.93;98312.00;4976572;28;19926;-79
2022/12/10 01:47:25;;;;;;;;;;;;;;;10.54;65.64;98309.38;4976105;28;20415;-79
2022/12/10 01:49:51;;;;;;;;;;;;;;;10.52;65.93;98314.72;4960697;28;19922;-79
2022/12/10 01:52:16;;;;;;;;;;;;;;;10.54;65.81;98317.22;4960602;28;19918;-78
2022/12/10 01:54:43;;;;;;;;;;;;;;;10.54;65.58;98317.22;4994210;28;19972;-78
2022/12/10 01:57:21;;;;;;;;;;;;;;;10.54;65.79;98317.22;4976776;28;20071;-78
2022/12/10 01:59:48;;;;;;;;;;;;;;;10.54;65.69;98312.81;4976952;28;19925;-78
2022/12/10 02:02:19;;;;;;;;;;;;;;;10.54;65.63;98302.38;4976900;28;19925;-79
2022/12/10 02:04:47;;;;;;;;;;;;;;;10.56;65.91;98300.44;4994445;28;19977;-79
2022/12/10 02:07:16;;;;;;;;;;;;;;;10.57;65.56;98296.09;4976961;28;19925;-80
2022/12/10 02:09:50;;;;;;;;;;;;;;;10.58;65.67;98295.09;4994313;28;19975;-79
2022/12/10 02:12:15;;;;;;;;;;;;;;;10.59;65.63;98288.94;4976665;28;20013;-80
2022/12/10 02:14:51;;;;;;;;;;;;;;;10.61;65.79;98289.63;4977093;28;20023;-80
2022/12/10 02:17:18;;;;;;;;;;;;;;;10.61;65.56;98280.03;4961043;28;19961;-80
2022/12/10 02:19:49;;;;;;;;;;;;;;;10.63;65.71;98270.28;4976845;28;19992;-80
2022/12/10 02:22:15;;;;;;;;;;;;;;;10.65;65.78;98267.53;4994197;28;20333;-80
2022/12/10 02:24:41;;;;;;;;;;;;;;;10.65;65.88;98265.75;4977227;28;19918;-80
2022/12/10 02:27:23;;;;;;;;;;;;;;;10.66;65.69;98266.59;4977155;28;19925;-80
2022/12/10 02:29:49;;;;;;;;;;;;;;;10.66;65.86;98256.16;4960493;28;19917;-80
2022/12/10 02:32:15;;;;;;;;;;;;;;;10.66;65.83;98258.78;4994361;28;19917;-80
2022/12/10 02:34:41;;;;;;;;;;;;;;;10.67;65.38;98250.81;4976231;28;19918;-80
2022/12/10 02:37:10;;;;;;;;;;;;;;;10.66;65.77;98245.72;4994252;28;19922;-80
2022/12/10 02:39:39;;;;;;;;;;;;;;;10.66;65.63;98246.53;4976727;28;19917;-80
2022/12/10 02:42:05;;;;;;;;;;;;;;;10.65;65.87;98251.88;4976930;28;19918;-80
2022/12/10 02:44:30;;;;;;;;;;;;;;;10.65;65.65;98254.50;4959948;28;19976;-81
2022/12/10 02:46:56;;;;;;;;;;;;;;;10.63;65.66;98249.41;4976455;28;20351;-80
2022/12/10 02:49:21;;;;;;;;;;;;;;;10.64;65.76;98251.06;4993764;28;20471;-80
2022/12/10 02:51:47;;;;;;;;;;;;;;;10.63;65.40;98249.41;4976644;28;20348;-80
2022/12/10 02:54:31;;;;;;;;;;;;;;;10.62;65.62;98252.97;4976904;28;19918;-80
2022/12/10 02:56:58;;;;;;;;;;;;;;;10.62;65.78;98246.91;4975964;28;19917;-79
2022/12/10 02:59:50;;;;;;;;;;;;;;;10.62;65.55;98246.91;4976143;28;19924;-78
2022/12/10 03:02:16;;;;;;;;;;;;;;;10.60;65.52;98251.44;4972154;28;19961;-79
2022/12/10 03:04:47;;;;;;;;;;;;;;;10.60;65.58;98249.66;4976658;28;19951;-79
2022/12/10 03:07:17;;;;;;;;;;;;;;;10.59;65.70;98253.22;4993728;28;19922;-79
2022/12/10 03:09:51;;;;;;;;;;;;;;;10.59;65.49;98247.19;4975592;28;19941;-79
2022/12/10 03:12:22;;;;;;;;;;;;;;;10.58;65.53;98253.34;4993427;28;19922;-80
2022/12/10 03:14:47;;;;;;;;;;;;;;;10.57;65.58;98256.94;4976243;28;19925;-80
2022/12/10 03:17:13;;;;;;;;;;;;;;;10.57;65.85;98246.50;4976298;28;20405;-80
2022/12/10 03:19:45;;;;;;;;;;;;;;;10.56;65.61;98243.03;4962909;28;19918;-78
2022/12/10 03:22:11;;;;;;;;;;;;;;;10.55;65.73;98245.78;4983567;28;19918;-78
2022/12/10 03:24:36;;;;;;;;;;;;;;;10.55;65.82;98243.16;4979378;28;20016;-78
2022/12/10 03:27:02;;;;;;;;;;;;;;;10.55;65.76;98254.44;4976909;28;20359;-79
2022/12/10 03:29:32;;;;;;;;;;;;;;;10.55;66.01;98253.59;4976429;28;20344;-79
2022/12/10 03:31:58;;;;;;;;;;;;;;;10.54;65.75;98244.13;4976215;28;19968;-80
2022/12/10 03:34:23;;;;;;;;;;;;;;;10.53;65.77;98243.31;4976037;28;19982;-80
2022/12/10 03:36:49;;;;;;;;;;;;;;;10.52;65.84;98252.09;4975610;28;19929;-79
2022/12/10 03:39:14;;;;;;;;;;;;;;;10.53;65.87;98248.53;4975899;28;19945;-79
2022/12/10 03:41:39;;;;;;;;;;;;;;;10.53;65.64;98240.72;4976677;28;19940;-79
2022/12/10 03:44:05;;;;;;;;;;;;;;;10.54;65.84;98239.72;4993624;28;19928;-78
2022/12/10 03:46:30;;;;;;;;;;;;;;;10.56;65.92;98242.22;4976461;28;20373;-79
2022/12/10 03:48:56;;;;;;;;;;;;;;;10.55;65.71;98241.41;4976244;28;19914;-79
2022/12/10 03:51:21;;;;;;;;;;;;;;;10.56;65.88;98232.59;4975957;28;19925;-80
2022/12/10 03:53:48;;;;;;;;;;;;;;;10.57;65.66;98236.88;4976093;28;19953;-79
2022/12/10 03:56:14;;;;;;;;;;;;;;;10.59;65.67;98224.50;4976739;28;19940;-79
2022/12/10 03:58:39;;;;;;;;;;;;;;;10.60;65.79;98218.34;4976201;28;20388;-79
2022/12/10 04:01:04;;;;;;;;;;;;;;;10.63;65.87;98212.88;4976356;28;19918;-79
2022/12/10 04:03:30;;;;;;;;;;;;;;;10.64;65.75;98205.84;4994086;28;20020;-79
2022/12/10 04:06:00;;;;;;;;;;;;;;;10.65;65.60;98205.72;4993982;28;19922;-79
2022/12/10 04:08:26;;;;;;;;;;;;;;;10.66;65.94;98207.38;4976387;28;19985;-79
2022/12/10 04:10:51;;;;;;;;;;;;;;;10.68;65.63;98209.88;4979122;28;20343;-79
2022/12/10 04:18:44;;;;;;;;;;;;;;;10.72;65.66;98210.41;4996906;28;19969;-79
2022/12/10 04:26:53;;;;;;;;;;;;;;;10.76;65.79;98230.91;4996851;28;19924;-78
2022/12/10 04:29:26;;;;;;;;;;;;;;;10.77;65.49;98224.75;4996492;28;19918;-79
2022/12/10 04:31:51;;;;;;;;;;;;;;;10.78;65.79;98223.78;4979549;28;20426;-78
2022/12/10 04:34:17;;;;;;;;;;;;;;;10.78;65.48;98217.72;4979341;28;19918;-78
2022/12/10 04:36:42;;;;;;;;;;;;;;;10.80;65.73;98215.81;4963217;28;19968;-76
2022/12/10 04:39:07;;;;;;;;;;;;;;;10.81;65.49;98220.09;4996521;28;20030;-78
2022/12/10 04:41:33;;;;;;;;;;;;;;;10.81;65.76;98217.47;4996316;28;20420;-77
2022/12/10 04:43:58;;;;;;;;;;;;;;;10.82;65.55;98222.56;4978683;28;19922;-78
2022/12/10 04:46:23;;;;;;;;;;;;;;;10.85;65.51;98229.31;4962578;28;20290;-79
2022/12/10 04:48:49;;;;;;;;;;;;;;;10.84;65.65;98225.03;4978621;28;19929;-78
2022/12/10 04:51:14;;;;;;;;;;;;;;;10.84;65.38;98222.44;4978704;28;19925;-77
2022/12/10 04:53:39;;;;;;;;;;;;;;;10.85;65.48;98226.72;4978852;28;19918;-78
2022/12/10 04:56:05;;;;;;;;;;;;;;;10.85;65.56;98230.13;4996060;28;19917;-77
2022/12/10 04:58:31;;;;;;;;;;;;;;;10.87;65.78;98230.00;4978560;28;19917;-76
2022/12/10 05:01:03;;;;;;;;;;;;;;;10.87;65.35;98230.00;4995808;28;19941;-78
2022/12/10 05:03:28;;;;;;;;;;;;;;;10.86;65.43;98231.81;4962403;28;20008;-79
2022/12/10 05:05:54;;;;;;;;;;;;;;;10.88;65.44;98231.66;4978553;28;19969;-79
2022/12/10 05:08:19;;;;;;;;;;;;;;;10.89;65.60;98230.69;4995868;28;19921;-79
2022/12/10 05:10:44;;;;;;;;;;;;;;;10.89;65.61;98237.72;4995290;28;19925;-79
2022/12/10 05:13:09;;;;;;;;;;;;;;;10.88;65.61;98234.28;4977815;28;20009;-77
2022/12/10 05:15:37;;;;;;;;;;;;;;;10.89;65.72;98235.91;4995576;28;20397;-77
2022/12/10 05:18:03;;;;;;;;;;;;;;;10.90;65.58;98237.56;4962123;28;20301;-78
2022/12/10 05:20:28;;;;;;;;;;;;;;;10.90;65.77;98240.19;4961983;28;19918;-77
2022/12/10 05:25:52;;;;;;;;;;;;;;;10.91;65.68;98236.63;4995381;28;20131;-76
2022/12/10 05:28:18;;;;;;;;;;;;;;;10.91;65.30;98234.03;4995617;28;19932;-78
2022/12/10 05:30:43;;;;;;;;;;;;;;;10.93;65.34;98239.94;4978123;28;19924;-77
2022/12/10 05:33:09;;;;;;;;;;;;;;;10.93;65.48;98233.88;4978058;28;20416;-79
2022/12/10 05:35:34;;;;;;;;;;;;;;;10.94;65.66;98233.75;4978280;28;19917;-76
2022/12/10 05:37:59;;;;;;;;;;;;;;;10.94;65.73;98220.69;4977955;28;19918;-77
2022/12/10 05:40:25;;;;;;;;;;;;;;;10.95;65.52;98224.13;4995539;28;20004;-78
2022/12/10 05:42:50;;;;;;;;;;;;;;;10.95;65.48;98224.94;4978141;28;19922;-78
2022/12/10 05:45:15;;;;;;;;;;;;;;;10.96;65.64;98223.16;4995202;28;20299;-79
2022/12/10 05:47:41;;;;;;;;;;;;;;;10.96;65.26;98217.94;4995122;28;19918;-79
2022/12/10 05:50:06;;;;;;;;;;;;;;;10.97;65.35;98217.78;4977512;28;19918;-78
2022/12/10 05:52:31;;;;;;;;;;;;;;;10.96;65.33;98208.31;4961477;28;19956;-78
2022/12/10 05:54:56;;;;;;;;;;;;;;;10.97;65.29;98206.53;4977412;28;19918;-78
2022/12/10 05:57:22;;;;;;;;;;;;;;;10.99;65.28;98212.44;4961407;28;19917;-78
2022/12/10 05:59:47;;;;;;;;;;;;;;;10.99;65.58;98208.06;4995181;28;19968;-78
2022/12/10 06:02:12;;;;;;;;;;;;;;;11.01;65.62;98208.75;4994783;28;20301;-79
2022/12/10 06:04:38;;;;;;;;;;;;;;;11.02;65.55;98212.19;4977263;28;19924;-78
2022/12/10 06:07:03;;;;;;;;;;;;;;;11.04;65.47;98218.13;4977822;28;19961;-78
2022/12/10 06:09:28;;;;;;;;;;;;;;;11.05;65.49;98219.75;4977133;28;20009;-80
2022/12/10 06:11:53;;;;;;;;;;;;;;;11.06;65.39;98208.34;4994939;28;19917;-78
2022/12/10 06:14:19;;;;;;;;;;;;;;;11.08;65.13;98205.59;4977345;28;19966;-77
2022/12/10 06:16:44;;;;;;;;;;;;;;;11.10;65.47;98214.13;4977121;28;20381;-78
2022/12/10 06:19:09;;;;;;;;;;;;;;;11.10;65.08;98207.13;4977062;28;20008;-78
2022/12/10 06:21:35;;;;;;;;;;;;;;;11.13;65.39;98213.88;4994517;28;19918;-78
2022/12/10 06:24:00;;;;;;;;;;;;;;;11.15;65.29;98212.78;4994397;28;19980;-79
2022/12/10 06:26:25;;;;;;;;;;;;;;;11.18;65.16;98211.66;4994800;28;20289;-78
2022/12/10 06:28:51;;;;;;;;;;;;;;;11.21;65.10;98216.63;4960961;28;19918;-78
2022/12/10 06:31:16;;;;;;;;;;;;;;;11.24;65.25;98208.53;4977451;28;19917;-78
2022/12/10 06:33:42;;;;;;;;;;;;;;;11.29;65.02;98203.75;4993749;28;19964;-79
2022/12/10 06:36:07;;;;;;;;;;;;;;;11.37;64.96;98203.06;4977180;28;20374;-78
2022/12/10 06:38:33;;;;;;;;;;;;;;;11.46;64.79;98204.03;4976810;28;19973;-79
2022/12/10 06:40:58;;;;;;;;;;;;;;;11.51;64.53;98196.59;4994473;28;19924;-78
2022/12/10 06:43:24;;;;;;;;;;;;;;;11.55;64.49;98203.22;4993991;28;20352;-78
2022/12/10 06:45:49;;;;;;;;;;;;;;;11.59;64.37;98199.34;4977050;28;19933;-78
2022/12/10 06:48:14;;;;;;;;;;;;;;;11.62;64.14;98201.69;4976980;28;19918;-78
2022/12/10 06:50:40;;;;;;;;;;;;;;;11.66;64.32;98197.03;4976338;28;19918;-80
2022/12/10 06:53:06;;;;;;;;;;;;;;;11.70;64.09;98191.41;4977293;28;19956;-79
2022/12/10 06:55:31;;;;;;;;;;;;;;;11.75;63.63;98189.19;4967510;28;19922;-78
2022/12/10 06:57:56;;;;;;;;;;;;;;;11.83;63.81;98191.13;4984732;28;19918;-78
2022/12/10 07:00:22;;;;;;;;;;;;;;;11.94;63.30;98182.34;4961438;28;19918;-78
2022/12/10 07:02:47;;;;;;;;;;;;;;;12.09;63.32;98187.97;4994370;28;19918;-79
2022/12/10 07:05:12;;;;;;;;;;;;;;;12.20;62.86;98185.19;4977256;28;19921;-78
2022/12/10 07:07:38;;;;;;;;;;;;;;;12.33;62.51;98186.69;4976873;28;19918;-78
2022/12/10 07:10:03;;;;;;;;;;;;;;;12.45;62.50;98191.59;4960746;28;19918;-78
2022/12/10 07:12:28;;;;;;;;;;;;;;;12.66;61.91;98201.03;4960857;28;19918;-79
2022/12/10 07:14:54;;;;;;;;;;;;;;;13.30;61.07;98195.88;4960375;28;20517;-77
2022/12/10 07:17:19;;;;;;;;;;;;;;;13.84;60.28;98195.97;4993851;28;19930;-78
2022/12/10 07:19:44;;;;;;;;;;;;;;;13.99;60.47;98201.50;4993676;28;19918;-78
2022/12/10 07:22:10;;;;;;;;;;;;;;;14.93;58.64;98200.78;4976909;28;19953;-78
2022/12/10 07:24:35;;;;;;;;;;;;;;;15.41;57.83;98202.91;4977064;28;20331;-79
2022/12/10 07:27:00;;;;;;;;;;;;;;;15.51;57.66;98212.31;4993904;28;19918;-78
2022/12/10 07:29:26;;;;;;;;;;;;;;;16.17;55.56;98208.94;4960226;28;19918;-78
2022/12/10 07:31:51;;;;;;;;;;;;;;;16.71;55.11;98205.69;4976139;28;20008;-78
2022/12/10 07:34:17;;;;;;;;;;;;;;;16.57;55.15;98196.66;4993590;28;19918;-79
2022/12/10 07:36:42;;;;;;;;;;;;;;;16.47;55.15;98196.88;4960057;28;19918;-79
2022/12/10 07:39:08;;;;;;;;;;;;;;;16.46;55.05;98195.22;4976030;28;19918;-79
2022/12/10 07:41:33;;;;;;;;;;;;;;;16.44;54.90;98184.84;4959847;28;20361;-77
2022/12/10 07:43:59;;;;;;;;;;;;;;;16.41;54.76;98187.84;4975878;28;20028;-79
2022/12/10 07:46:28;;;;;;;;;;;;;;;16.36;54.72;98186.69;4980284;28;19922;-79
2022/12/10 07:48:54;;;;;;;;;;;;;;;16.26;54.81;98194.75;4979991;28;19957;-80
2022/12/10 07:51:20;;;;;;;;;;;;;;;16.15;54.85;98195.91;4980313;28;20293;-78
2022/12/10 07:53:45;;;;;;;;;;;;;;;16.04;55.08;98197.06;4980458;28;20303;-78
2022/12/10 07:56:11;;;;;;;;;;;;;;;15.95;55.51;98197.25;4980128;28;19918;-80
2022/12/10 07:58:36;;;;;;;;;;;;;;;15.81;55.71;98191.63;4963661;28;20393;-78
2022/12/10 08:01:11;;;;;;;;;;;;;;;15.73;55.86;98196.88;4979885;28;19925;-78
2022/12/10 08:03:37;;;;;;;;;;;;;;;15.61;56.01;98196.38;4979919;28;19932;-78
2022/12/10 08:06:10;;;;;;;;;;;;;;;15.52;56.46;98185.00;4980580;28;19918;-79
2022/12/10 08:08:35;;;;;;;;;;;;;;;15.45;56.47;98189.28;4997294;28;19922;-78
2022/12/10 08:11:01;;;;;;;;;;;;;;;15.40;56.70;98185.47;4997124;28;19991;-79
2022/12/10 08:13:26;;;;;;;;;;;;;;;15.35;57.00;98183.31;4980133;28;19918;-78
2022/12/10 08:15:52;;;;;;;;;;;;;;;15.31;57.06;98164.44;4996965;28;19918;-78
2022/12/10 08:18:17;;;;;;;;;;;;;;;15.29;57.04;98168.19;4979859;28;19925;-78
2022/12/10 08:20:42;;;;;;;;;;;;;;;15.28;57.23;98164.75;4979517;28;20034;-78
2022/12/10 08:23:08;;;;;;;;;;;;;;;15.33;57.09;98165.09;4963181;28;19918;-78
2022/12/10 08:25:33;;;;;;;;;;;;;;;15.43;57.18;98172.00;4996930;28;19976;-78
2022/12/10 08:28:02;;;;;;;;;;;;;;;15.46;57.08;98174.31;4963833;28;19918;-80
2022/12/10 08:30:27;;;;;;;;;;;;;;;15.51;56.93;98183.38;4980118;28;19918;-78
2022/12/10 08:32:53;;;;;;;;;;;;;;;15.58;56.88;98178.28;4963133;28;20034;-79
2022/12/10 08:35:18;;;;;;;;;;;;;;;15.66;56.58;98175.66;4979186;28;19953;-79
2022/12/10 08:37:43;;;;;;;;;;;;;;;15.78;56.37;98178.00;4996440;28;19918;-78
2022/12/10 08:40:09;;;;;;;;;;;;;;;15.89;56.45;98169.75;4996475;28;19933;-79
2022/12/10 08:42:34;;;;;;;;;;;;;;;16.03;55.83;98165.66;4979047;28;20309;-81
2022/12/10 08:45:01;;;;;;;;;;;;;;;16.27;55.32;98149.00;4962491;28;19926;-81
2022/12/10 08:47:26;;;;;;;;;;;;;;;16.87;54.50;98155.56;4979350;28;19917;-78
2022/12/10 08:49:52;;;;;;;;;;;;;;;17.96;52.37;98146.81;4979280;28;19940;-79
2022/12/10 08:52:17;;;;;;;;;;;;;;;18.81;51.04;98148.25;4962684;28;19918;-79
2022/12/10 08:54:42;;;;;;;;;;;;;;;19.60;49.61;98152.81;4978462;28;19917;-78
2022/12/10 08:57:08;;;;;;;;;;;;;;;20.40;47.96;98148.16;4978645;28;19973;-79
2022/12/10 08:59:33;;;;;;;;;;;;;;;21.21;46.14;98140.59;4978472;28;19925;-78
2022/12/10 09:01:58;;;;;;;;;;;;;;;21.98;44.68;98127.81;4978732;28;19917;-79
2022/12/10 09:04:24;;;;;;;;;;;;;;;22.67;43.31;98125.69;4977902;28;19922;-79
2022/12/10 09:06:50;;;;;;;;;;;;;;;23.25;41.76;98130.16;4996291;28;19972;-79
2022/12/10 09:09:15;;;;;;;;;;;;;;;23.80;41.03;98122.41;4996120;28;20016;-79
2022/12/10 09:11:41;;;;;;;;;;;;;;;24.12;40.37;98122.34;4962051;28;19968;-78
2022/12/10 09:14:06;;;;;;;;;;;;;;;24.61;39.18;98117.16;4978505;28;19921;-79
2022/12/10 09:16:35;;;;;;;;;;;;;;;24.98;38.79;98111.78;4995771;28;19965;-79
2022/12/10 09:19:00;;;;;;;;;;;;;;;25.38;38.18;98097.06;4978588;28;19933;-78
2022/12/10 09:21:25;;;;;;;;;;;;;;;25.79;37.32;98098.91;4996684;28;19918;-78
2022/12/10 09:23:51;;;;;;;;;;;;;;;25.58;37.57;98091.44;4996017;28;19937;-78
2022/12/10 09:26:16;;;;;;;;;;;;;;;24.76;38.54;98089.28;4962478;28;19940;-79
2022/12/10 09:28:42;;;;;;;;;;;;;;;24.43;39.15;98091.28;4962373;28;20380;-79
2022/12/10 09:31:08;;;;;;;;;;;;;;;24.09;39.37;98082.81;4995554;28;20387;-77
2022/12/10 09:33:33;;;;;;;;;;;;;;;23.61;40.21;98078.91;4995623;28;19924;-79
2022/12/10 09:35:58;;;;;;;;;;;;;;;23.25;40.76;98072.41;4978542;28;19918;-79
2022/12/10 09:38:24;;;;;;;;;;;;;;;22.97;41.23;98077.25;4977932;28;19918;-79
2022/12/10 09:40:51;;;;;;;;;;;;;;;22.78;41.48;98069.16;4979277;28;20427;-78
2022/12/10 09:43:28;;;;;;;;;;;;;;;22.52;41.96;98056.78;4978935;28;20028;-78
2022/12/10 09:46:20;;;;;;;;;;;;;;;24.28;38.80;98050.81;4996353;28;19972;-79
2022/12/10 09:48:48;;;;;;;;;;;;;;;26.92;34.25;98047.00;4993436;28;20016;-78
2022/12/10 09:51:13;;;;;;;;;;;;;;;28.47;31.89;98047.50;5001373;28;19917;-81
2022/12/10 09:53:39;;;;;;;;;;;;;;;29.16;30.77;98046.06;4997618;28;19973;-79
2022/12/10 09:56:04;;;;;;;;;;;;;;;29.36;30.56;98038.22;4963199;28;19918;-80
2022/12/10 09:58:29;;;;;;;;;;;;;;;29.18;30.39;98035.91;4998367;28;19922;-80
2022/12/10 10:00:59;;;;;;;;;;;;;;;30.12;28.82;98039.03;4981137;28;19918;-79
2022/12/10 10:03:24;;;;;;;;;;;;;;;31.10;27.61;98036.69;4981301;28;20036;-78
2022/12/10 10:05:50;;;;;;;;;;;;;;;31.76;26.62;98035.88;4978605;28;20439;-78
2022/12/10 10:08:24;;;;;;;;;;;;;;;32.24;25.95;98027.41;4977483;28;19961;-80
2022/12/10 10:10:50;;;;;;;;;;;;;;;30.39;28.18;98008.47;4995408;28;20008;-80
2022/12/10 10:13:34;;;;;;;;;;;;;;;30.02;29.25;98012.06;4978683;28;19976;-80
2022/12/10 10:16:01;;;;;;;;;;;;;;;30.25;28.52;98000.03;4979665;28;19922;-81
2022/12/10 10:18:33;;;;;;;;;;;;;;;30.32;28.61;97997.94;4993754;28;19924;-82
2022/12/10 10:20:58;;;;;;;;;;;;;;;29.95;29.48;97994.28;4986129;28;19925;-85
2022/12/10 10:23:23;;;;;;;;;;;;;;;29.93;29.74;97995.59;4998696;28;19918;-81
2022/12/10 10:25:49;;;;;;;;;;;;;;;29.77;29.78;97995.47;4968744;28;19917;-77
2022/12/10 10:28:17;;;;;;;;;;;;;;;29.67;30.01;97994.63;4998762;28;19917;-78
2022/12/10 10:30:43;;;;;;;;;;;;;;;29.45;30.38;97994.75;4978262;28;19918;-77
2022/12/10 10:33:09;;;;;;;;;;;;;;;29.21;30.66;97989.75;4977621;28;19918;-78
2022/12/10 10:35:44;;;;;;;;;;;;;;;28.91;30.90;97988.38;4977458;28;20403;-78
2022/12/10 10:38:20;;;;;;;;;;;;;;;28.58;31.61;97979.47;4977483;28;19929;-79
2022/12/10 10:40:46;;;;;;;;;;;;;;;28.27;31.98;97973.72;4994334;28;20004;-78
2022/12/10 10:43:15;;;;;;;;;;;;;;;27.92;32.67;97971.38;4976868;28;20012;-78
2022/12/10 10:45:41;;;;;;;;;;;;;;;27.71;33.19;97965.75;4976746;28;20108;-79
2022/12/10 10:48:22;;;;;;;;;;;;;;;27.36;33.93;97961.50;4976757;28;20020;-78
2022/12/10 10:50:49;;;;;;;;;;;;;;;27.01;34.45;97957.16;4960349;28;19921;-79
2022/12/10 10:53:24;;;;;;;;;;;;;;;26.84;34.47;97953.66;4976683;28;19925;-78
2022/12/10 10:55:50;;;;;;;;;;;;;;;26.48;35.64;97951.13;4994112;28;19924;-78
2022/12/10 10:58:18;;;;;;;;;;;;;;;26.20;35.83;97946.56;4976785;28;19918;-79
2022/12/10 11:00:52;;;;;;;;;;;;;;;25.91;36.29;97948.38;4976374;28;19924;-79
2022/12/10 11:03:17;;;;;;;;;;;;;;;25.64;36.64;97948.88;4976684;28;19918;-78
2022/12/10 11:05:43;;;;;;;;;;;;;;;25.41;36.96;97947.00;4960111;28;20293;-79
2022/12/10 11:08:13;;;;;;;;;;;;;;;25.15;37.56;97950.94;4976369;28;19918;-77
2022/12/10 11:10:40;;;;;;;;;;;;;;;24.91;38.14;97950.91;4959859;28;20300;-77
2022/12/10 11:13:06;;;;;;;;;;;;;;;24.68;38.31;97940.97;4976341;28;19918;-79
2022/12/10 11:15:33;;;;;;;;;;;;;;;24.43;38.99;97943.75;4976328;28;20439;-79
2022/12/10 11:17:59;;;;;;;;;;;;;;;24.23;39.28;97934.16;4976230;28;19984;-79
2022/12/10 11:20:28;;;;;;;;;;;;;;;24.01;39.67;97926.63;4960087;28;20384;-78
2022/12/10 11:22:54;;;;;;;;;;;;;;;23.88;40.04;97924.13;4960177;28;19976;-79
2022/12/10 11:25:19;;;;;;;;;;;;;;;23.71;40.40;97925.72;4993914;28;19922;-78
2022/12/10 11:27:51;;;;;;;;;;;;;;;23.55;40.68;97933.25;4976241;28;19957;-78
2022/12/10 11:30:22;;;;;;;;;;;;;;;23.39;40.95;97925.81;4976166;28;19921;-78
2022/12/10 11:33:06;;;;;;;;;;;;;;;23.26;40.87;97924.94;4960843;28;20423;-79
2022/12/10 11:35:50;;;;;;;;;;;;;;;23.14;41.30;97920.53;4993853;28;20005;-78
2022/12/10 11:38:21;;;;;;;;;;;;;;;22.93;41.86;97918.00;4993429;28;19925;-80
2022/12/10 11:40:49;;;;;;;;;;;;;;;22.76;42.18;97920.38;4960215;28;20012;-78
2022/12/10 11:43:15;;;;;;;;;;;;;;;22.58;42.36;97917.63;4993564;28;19922;-79
2022/12/10 11:45:40;;;;;;;;;;;;;;;22.40;42.86;97913.03;4993418;28;19933;-79
2022/12/10 11:48:06;;;;;;;;;;;;;;;22.21;43.46;97907.56;4976162;28;20311;-80
2022/12/10 11:50:41;;;;;;;;;;;;;;;22.13;43.42;97909.69;4976171;28;19986;-75
2022/12/10 11:53:07;;;;;;;;;;;;;;;21.95;43.83;97910.34;4972111;28;20389;-82
2022/12/10 11:55:35;;;;;;;;;;;;;;;21.81;44.06;97918.38;4993373;28;19924;-79
2022/12/10 11:58:09;;;;;;;;;;;;;;;21.73;44.28;97912.47;4993257;28;19944;-80
2022/12/10 12:00:43;;;;;;;;;;;;;;;21.62;44.55;97903.31;4993188;28;19925;-82
2022/12/10 12:03:18;;;;;;;;;;;;;;;21.45;44.91;97893.09;4974167;28;20353;-80
2022/12/10 12:05:43;;;;;;;;;;;;;;;21.27;45.51;97893.75;4993199;28;19968;-82
2022/12/10 12:08:32;;;;;;;;;;;;;;;21.12;45.90;97888.66;4993677;28;19918;-83
2022/12/10 12:11:10;;;;;;;;;;;;;;;20.95;46.09;97882.13;4933753;29;20033;-81
2022/12/10 12:13:43;;;;;;;;;;;;;;;20.78;46.71;97865.84;4933503;29;20339;-79
2022/12/10 12:16:09;;;;;;;;;;;;;;;20.66;46.92;97862.16;4918077;29;19966;-77
2022/12/10 12:18:54;;;;;;;;;;;;;;;20.55;46.90;97861.69;4933108;29;19919;-76
2022/12/10 12:21:19;;;;;;;;;;;;;;;20.45;47.11;97856.00;4932991;29;19919;-73
2022/12/10 12:23:55;;;;;;;;;;;;;;;20.35;47.24;97852.91;4916134;29;19919;-76
2022/12/10 12:26:20;;;;;;;;;;;;;;;20.20;47.43;97853.09;4901033;29;19978;-77
2022/12/10 12:28:47;;;;;;;;;;;;;;;20.06;47.75;97845.09;4933350;29;19923;-76
2022/12/10 12:31:19;;;;;;;;;;;;;;;19.95;47.91;97845.66;4934625;29;19962;-75
2022/12/10 12:33:51;;;;;;;;;;;;;;;19.82;48.28;97845.66;4904811;29;19919;-78
2022/12/10 12:36:20;;;;;;;;;;;;;;;19.73;48.33;97849.44;4920208;29;19989;-77
2022/12/10 12:38:48;;;;;;;;;;;;;;;19.62;48.69;97850.81;4920029;29;20017;-76
2022/12/10 12:41:15;;;;;;;;;;;;;;;19.50;49.06;97845.28;4920189;29;20017;-76
2022/12/10 12:44:01;;;;;;;;;;;;;;;19.40;49.27;97842.97;4936073;29;19926;-77
2022/12/10 12:46:27;;;;;;;;;;;;;;;19.31;49.57;97837.03;4917109;29;19921;-76
2022/12/10 12:48:55;;;;;;;;;;;;;;;19.21;49.59;97828.59;4918236;29;19922;-75
2022/12/10 12:51:23;;;;;;;;;;;;;;;19.10;49.95;97832.63;4936073;29;19930;-75
2022/12/10 12:53:48;;;;;;;;;;;;;;;19.03;50.08;97842.34;4934785;29;19919;-75
2022/12/10 12:56:16;;;;;;;;;;;;;;;18.95;50.34;97845.13;4934574;29;20010;-76
2022/12/10 12:58:49;;;;;;;;;;;;;;;18.89;50.45;97859.13;4917902;29;19954;-74
2022/12/10 13:01:27;;;;;;;;;;;;;;;18.79;50.90;97854.94;4917871;29;19926;-75